Washington, District of Columbia
Traffic Map
Current Weather Conditions
Washington, District of Columbia
Few Clouds
Few Clouds
35°
Feels Like: 29°
Wind Chill: 29° Ceiling: Unl
Heat Index: 35° Visibility: 10mi
Dew Point: Wind: 8mph
Humidity: 33% Direction: 320° (NW)
Pressure: 30.28in Gusts: 0mph
Raw Report DataKDCA 312152Z 32007KT 10SM FEW250 02/M13 A3028 RMK AO2 SLP253 T00171133
Traffic Incident Summary
Active as of:
Severity:
Category:
InformationThere was an issue retrieving the traffic information for this location. Please try a different location or try again shortly.
Advertisements
Track Severe Weather on mobile